Time;durP1;ratioP1;P1;durP2;ratioP2;P2;SDS_P1;SDS_P2;PMS_P1;PMS_P2;Temp;Humidity;BMP_temperature;BMP_pressure;BME280_temperature;BME280_humidity;BME280_pressure;Samples;Min_cycle;Max_cycle;Signal;HPM_P1;HPM_P2
2023/05/19 00:00:52;;;;;;;9.35;4.18;;;;;;;9.10;100.00;101768.28;6267204;28;20092;-94
2023/05/19 00:04:01;;;;;;;7.60;4.10;;;;;;;9.06;100.00;101765.00;6248274;28;20049;-93
2023/05/19 00:07:04;;;;;;;6.88;3.88;;;;;;;9.02;100.00;101764.34;6261171;28;20073;-94
2023/05/19 00:10:07;;;;;;;8.07;3.45;;;;;;;9.02;100.00;101768.69;6244346;28;20049;-94
2023/05/19 00:13:09;;;;;;;5.97;3.53;;;;;;;9.01;100.00;101769.59;6246561;28;20069;-94
2023/05/19 00:16:11;;;;;;;6.90;3.97;;;;;;;9.01;100.00;101774.75;6262844;28;20045;-94
2023/05/19 00:19:13;;;;;;;7.72;4.22;;;;;;;9.02;100.00;101779.03;6264708;28;20051;-94
2023/05/19 00:22:15;;;;;;;17.92;4.10;;;;;;;8.98;100.00;101774.91;6246287;28;20163;-94
2023/05/19 00:25:17;;;;;;;7.80;3.53;;;;;;;9.01;100.00;101764.41;6243254;28;20049;-94
2023/05/19 00:28:19;;;;;;;9.50;3.90;;;;;;;9.03;100.00;101770.34;6243964;28;20041;-95
2023/05/19 00:31:21;;;;;;;6.57;3.67;;;;;;;9.07;100.00;101769.28;6263191;28;20045;-94
2023/05/19 00:34:23;;;;;;;5.18;3.38;;;;;;;9.09;100.00;101770.00;6252636;28;20056;-94
2023/05/19 00:37:25;;;;;;;5.75;3.08;;;;;;;9.10;100.00;101766.53;6262979;28;20521;-94
2023/05/19 00:40:30;;;;;;;10.70;3.78;;;;;;;9.09;100.00;101753.69;6263308;28;20037;-94
2023/05/19 00:43:33;;;;;;;5.97;3.42;;;;;;;9.07;100.00;101758.94;6261436;28;20623;-94
2023/05/19 00:46:35;;;;;;;5.93;3.40;;;;;;;9.03;100.00;101758.25;6253825;28;20037;-94
2023/05/19 00:49:37;;;;;;;4.88;3.40;;;;;;;9.05;100.00;101760.78;6254484;28;20211;-94
2023/05/19 00:52:39;;;;;;;7.18;3.47;;;;;;;9.02;100.00;101755.78;6257653;28;20495;-94
2023/05/19 00:55:41;;;;;;;6.40;3.20;;;;;;;9.03;100.00;101750.50;6229315;28;20057;-95
2023/05/19 00:58:44;;;;;;;4.57;3.15;;;;;;;8.98;100.00;101749.09;6244283;28;20081;-94
2023/05/19 01:01:53;;;;;;;7.47;3.28;;;;;;;8.96;100.00;101745.75;6254516;28;20068;-94
2023/05/19 01:04:56;;;;;;;4.43;3.00;;;;;;;8.98;100.00;101749.91;6250751;28;20074;-95
2023/05/19 01:07:59;;;;;;;3.97;2.75;;;;;;;8.94;100.00;101747.56;6246229;28;20330;-95
2023/05/19 01:11:02;;;;;;;5.90;3.38;;;;;;;8.94;100.00;101750.16;6255051;28;20107;-94
2023/05/19 01:14:04;;;;;;;5.53;3.03;;;;;;;8.89;100.00;101741.81;6269713;28;20044;-94
2023/05/19 01:17:08;;;;;;;4.15;3.05;;;;;;;8.90;100.00;101748.66;6264027;28;20415;-94
2023/05/19 01:20:37;;;;;;;6.60;3.10;;;;;;;8.90;100.00;101754.66;6248391;28;20513;-94
2023/05/19 01:23:50;;;;;;;9.63;3.80;;;;;;;8.91;100.00;101755.50;6251792;28;20049;-94
2023/05/19 01:27:11;;;;;;;9.00;3.25;;;;;;;8.88;100.00;101753.06;6254240;28;20041;-95
2023/05/19 01:30:50;;;;;;;6.95;3.33;;;;;;;8.89;100.00;101744.41;6263488;28;20045;-95
2023/05/19 01:33:56;;;;;;;5.63;2.95;;;;;;;8.91;100.00;101750.31;6237282;28;20037;-94
2023/05/19 01:37:00;;;;;;;5.38;2.90;;;;;;;8.88;100.00;101748.75;6251131;28;20046;-94
2023/05/19 01:40:02;;;;;;;6.40;3.58;;;;;;;8.83;100.00;101743.81;6222947;28;20044;-94
2023/05/19 01:43:09;;;;;;;7.70;2.65;;;;;;;8.89;100.00;101752.16;6262622;28;20079;-94
2023/05/19 01:46:11;;;;;;;6.65;3.33;;;;;;;8.82;100.00;101747.31;6262319;28;20048;-94
2023/05/19 01:49:13;;;;;;;6.75;3.25;;;;;;;8.80;100.00;101751.72;6260801;28;20140;-94
2023/05/19 01:52:18;;;;;;;9.07;3.85;;;;;;;8.76;100.00;101755.38;6240638;28;20064;-94
2023/05/19 01:55:22;;;;;;;6.35;3.45;;;;;;;8.74;100.00;101757.19;6259690;28;20384;-94
2023/05/19 01:58:44;;;;;;;6.00;3.83;;;;;;;8.71;100.00;101761.69;6258707;28;20044;-94
2023/05/19 02:01:56;;;;;;;7.72;3.70;;;;;;;8.65;100.00;101751.69;6244318;28;20091;-94
2023/05/19 02:05:28;;;;;;;9.35;3.13;;;;;;;8.60;100.00;101754.50;6263810;28;20494;-94
2023/05/19 02:09:02;;;;;;;8.95;3.38;;;;;;;8.56;100.00;101760.72;6255764;28;20126;-95
2023/05/19 02:12:16;;;;;;;6.20;3.50;;;;;;;8.55;100.00;101753.91;6255130;28;20064;-94
2023/05/19 02:15:25;;;;;;;9.48;3.83;;;;;;;8.51;100.00;101747.22;6261099;28;20045;-94
2023/05/19 02:18:28;;;;;;;7.82;3.58;;;;;;;8.46;100.00;101749.19;6249789;28;20093;-94
2023/05/19 02:21:31;;;;;;;5.75;3.15;;;;;;;8.45;100.00;101752.66;6231736;28;20404;-94
2023/05/19 02:24:33;;;;;;;6.97;3.67;;;;;;;8.39;100.00;101754.66;6249621;28;20037;-94
2023/05/19 02:27:37;;;;;;;5.45;3.47;;;;;;;8.31;100.00;101754.16;6256157;28;20053;-95
2023/05/19 02:30:39;;;;;;;6.00;3.25;;;;;;;8.20;100.00;101757.28;6258979;28;20037;-94
2023/05/19 02:33:41;;;;;;;6.68;3.40;;;;;;;8.16;100.00;101749.78;6257412;28;20497;-93
2023/05/19 02:36:44;;;;;;;6.38;3.17;;;;;;;8.08;100.00;101744.16;6253889;28;20851;-94
2023/05/19 02:39:46;;;;;;;8.20;3.05;;;;;;;8.04;100.00;101747.78;6245846;28;20045;-94
2023/05/19 02:42:49;;;;;;;6.22;3.28;;;;;;;7.98;100.00;101746.34;6246695;28;20072;-94
2023/05/19 02:45:51;;;;;;;4.53;3.38;;;;;;;7.92;100.00;101747.47;6252021;28;20523;-93
2023/05/19 02:48:54;;;;;;;5.93;3.60;;;;;;;7.84;100.00;101744.44;6255245;28;20041;-94
2023/05/19 02:51:56;;;;;;;4.75;3.30;;;;;;;7.78;100.00;101739.56;6246280;28;20491;-94
2023/05/19 02:54:59;;;;;;;6.50;3.70;;;;;;;7.74;100.00;101741.44;6260437;28;20036;-94
2023/05/19 02:58:01;;;;;;;6.35;3.03;;;;;;;7.67;100.00;101731.50;6260111;28;20675;-94
2023/05/19 03:01:03;;;;;;;6.35;3.78;;;;;;;7.67;100.00;101728.94;6259117;28;20041;-94
2023/05/19 03:04:08;;;;;;;5.38;2.97;;;;;;;7.63;100.00;101725.69;6259966;28;20426;-94
2023/05/19 03:07:12;;;;;;;7.65;3.45;;;;;;;7.59;100.00;101725.88;6242549;28;20048;-94
2023/05/19 03:10:14;;;;;;;5.38;3.30;;;;;;;7.60;100.00;101730.94;6243208;28;20041;-94
2023/05/19 03:13:16;;;;;;;5.43;3.63;;;;;;;7.55;100.00;101731.19;6260999;28;20044;-93
2023/05/19 03:16:18;;;;;;;5.75;2.97;;;;;;;7.53;100.00;101729.59;6258741;28;20051;-94
2023/05/19 03:19:20;;;;;;;5.40;3.15;;;;;;;7.53;100.00;101735.56;6259898;28;20514;-93
2023/05/19 03:22:22;;;;;;;6.15;3.15;;;;;;;7.57;100.00;101732.84;6258608;28;20049;-94
2023/05/19 03:25:28;;;;;;;5.50;3.13;;;;;;;7.55;100.00;101726.03;6259120;28;20060;-94
2023/05/19 03:28:30;;;;;;;7.50;4.00;;;;;;;7.55;100.00;101727.75;6258185;28;20049;-95
2023/05/19 03:31:32;;;;;;;7.50;3.75;;;;;;;7.54;100.00;101729.50;6252309;28;20684;-94
2023/05/19 03:34:35;;;;;;;8.15;3.60;;;;;;;7.51;100.00;101724.50;6238198;28;20053;-93
2023/05/19 03:37:36;;;;;;;6.80;3.90;;;;;;;7.55;100.00;101730.34;6256777;28;20501;-94
2023/05/19 03:40:40;;;;;;;7.00;3.70;;;;;;;7.54;100.00;101726.94;6260055;28;20098;-94
2023/05/19 03:43:44;;;;;;;7.50;3.67;;;;;;;7.52;100.00;101720.19;6237837;28;20056;-94
2023/05/19 03:46:49;;;;;;;7.13;3.65;;;;;;;7.57;100.00;101727.69;6252357;28;20061;-93
2023/05/19 03:50:09;;;;;;;6.35;3.80;;;;;;;7.58;100.00;101727.63;6229347;28;20617;-94
2023/05/19 03:53:25;;;;;;;4.82;3.40;;;;;;;7.53;100.00;101737.31;6257351;28;20059;-94
2023/05/19 03:56:27;;;;;;;6.78;3.75;;;;;;;7.50;100.00;101728.00;6263596;28;20074;-94
2023/05/19 03:59:30;;;;;;;8.35;3.95;;;;;;;7.48;100.00;101729.81;6257568;28;20033;-94
2023/05/19 04:02:32;;;;;;;7.47;3.40;;;;;;;7.44;100.00;101732.59;6261857;28;20060;-93
2023/05/19 04:05:34;;;;;;;7.00;3.63;;;;;;;7.42;100.00;101726.66;6266418;28;20053;-94
2023/05/19 04:08:36;;;;;;;6.38;3.78;;;;;;;7.41;100.00;101719.84;6262849;28;20045;-93
2023/05/19 04:11:39;;;;;;;7.43;3.70;;;;;;;7.40;100.00;101729.31;6259335;28;20687;-93
2023/05/19 04:14:41;;;;;;;4.85;3.40;;;;;;;7.37;100.00;101723.47;6263322;28;20055;-93
2023/05/19 04:17:46;;;;;;;6.25;3.15;;;;;;;7.34;100.00;101732.19;6263610;28;20060;-93
2023/05/19 04:20:49;;;;;;;5.70;3.45;;;;;;;7.36;100.00;101732.94;6246710;28;20462;-93
2023/05/19 04:23:53;;;;;;;5.88;3.53;;;;;;;7.36;100.00;101735.53;6256589;28;20049;-94
2023/05/19 04:26:55;;;;;;;6.88;3.58;;;;;;;7.38;100.00;101738.00;6263749;28;20700;-93
2023/05/19 04:29:58;;;;;;;5.50;3.67;;;;;;;7.38;100.00;101741.44;6260590;28;20037;-94
2023/05/19 04:33:03;;;;;;;4.57;3.33;;;;;;;7.38;100.00;101744.03;6263551;28;20513;-93
2023/05/19 04:36:09;;;;;;;7.30;3.33;;;;;;;7.39;100.00;101737.13;6258130;28;20056;-94
2023/05/19 04:39:14;;;;;;;6.47;3.75;;;;;;;7.41;100.00;101738.72;6263364;28;20052;-93
2023/05/19 04:42:24;;;;;;;7.38;3.80;;;;;;;7.46;100.00;101746.25;6256735;28;20053;-94
2023/05/19 04:45:27;;;;;;;5.57;3.80;;;;;;;7.49;100.00;101749.50;6256366;28;20341;-93
2023/05/19 04:48:33;;;;;;;6.50;3.80;;;;;;;7.51;100.00;101752.00;6250341;28;20124;-93
2023/05/19 04:51:35;;;;;;;5.20;3.47;;;;;;;7.53;100.00;101751.03;6258867;28;20494;-93
2023/05/19 04:54:38;;;;;;;6.43;3.75;;;;;;;7.55;100.00;101751.81;6252333;28;20075;-93
2023/05/19 04:57:40;;;;;;;5.10;3.45;;;;;;;7.57;100.00;101753.47;6262557;28;20108;-93
2023/05/19 05:00:43;;;;;;;5.95;4.03;;;;;;;7.60;100.00;101748.16;6260218;28;20162;-94
2023/05/19 05:03:49;;;;;;;4.75;3.55;;;;;;;7.59;100.00;101755.06;6253478;28;20130;-93
2023/05/19 05:06:51;;;;;;;7.22;4.03;;;;;;;7.60;100.00;101748.16;6260180;28;20041;-93
2023/05/19 05:09:54;;;;;;;7.55;4.20;;;;;;;7.57;100.00;101749.13;6245660;28;20722;-94
2023/05/19 05:12:59;;;;;;;9.70;4.55;;;;;;;7.59;100.00;101746.50;6260192;28;20041;-93
2023/05/19 05:16:05;;;;;;;8.57;4.00;;;;;;;7.61;100.00;101742.13;6260324;28;20175;-93
2023/05/19 05:19:08;;;;;;;8.98;4.30;;;;;;;7.65;100.00;101746.19;6261017;28;20042;-93
2023/05/19 05:22:12;;;;;;;9.30;4.30;;;;;;;7.70;100.00;101750.25;6260900;28;20099;-94
2023/05/19 05:25:15;;;;;;;8.82;4.75;;;;;;;7.76;100.00;101749.13;6262483;28;20589;-94
2023/05/19 05:28:18;;;;;;;6.30;4.25;;;;;;;7.84;100.00;101753.91;6221025;28;20526;-93
2023/05/19 05:31:21;;;;;;;8.80;4.25;;;;;;;7.90;100.00;101751.03;6260778;28;20044;-93
2023/05/19 05:34:23;;;;;;;8.70;4.15;;;;;;;7.95;100.00;101752.50;6271090;28;20187;-94
2023/05/19 05:37:25;;;;;;;8.23;4.30;;;;;;;8.03;100.00;101741.81;6261019;28;20515;-93
2023/05/19 05:40:28;;;;;;;9.75;4.15;;;;;;;8.15;100.00;101740.38;6266598;28;20044;-93
2023/05/19 05:43:31;;;;;;;7.07;4.63;;;;;;;8.25;100.00;101740.72;6258900;28;20460;-94
2023/05/19 05:46:36;;;;;;;6.82;4.20;;;;;;;8.29;100.00;101740.50;6250674;28;20626;-92
2023/05/19 05:49:39;;;;;;;8.95;4.57;;;;;;;8.36;100.00;101736.72;6260549;28;20079;-93
2023/05/19 05:52:46;;;;;;;9.32;5.38;;;;;;;8.46;100.00;101738.88;6253599;28;20060;-93
2023/05/19 05:55:50;;;;;;;9.50;5.13;;;;;;;8.54;100.00;101736.72;6257936;28;20045;-94
2023/05/19 05:58:52;;;;;;;8.18;4.38;;;;;;;8.60;100.00;101746.75;6260845;28;20167;-94
2023/05/19 06:01:55;;;;;;;9.25;4.55;;;;;;;8.64;100.00;101748.25;6259289;28;20045;-94
2023/05/19 06:04:57;;;;;;;10.27;4.93;;;;;;;8.77;100.00;101751.88;6262513;28;20534;-93
2023/05/19 06:08:00;;;;;;;9.57;4.82;;;;;;;8.82;100.00;101752.47;6260746;28;20037;-95
2023/05/19 06:11:08;;;;;;;9.40;4.90;;;;;;;8.89;100.00;101752.97;6242510;28;20052;-94
2023/05/19 06:14:12;;;;;;;9.82;5.22;;;;;;;8.97;100.00;101750.84;6259704;28;20495;-93
2023/05/19 06:17:37;;;;;;;8.20;4.20;;;;;;;9.05;100.00;101748.69;6259016;28;20044;-94
2023/05/19 06:20:39;;;;;;;7.68;4.28;;;;;;;9.13;100.00;101750.84;6260194;28;20049;-94
2023/05/19 06:23:41;;;;;;;7.57;4.15;;;;;;;9.18;100.00;101742.88;6253077;28;20505;-93
2023/05/19 06:26:45;;;;;;;7.78;4.03;;;;;;;9.19;100.00;101741.94;6260088;28;20049;-93
2023/05/19 06:29:47;;;;;;;9.38;4.32;;;;;;;9.25;100.00;101737.28;6242717;28;20072;-93
2023/05/19 06:32:49;;;;;;;9.98;4.40;;;;;;;9.31;100.00;101743.03;6253035;28;20117;-94
2023/05/19 06:35:51;;;;;;;8.50;5.07;;;;;;;9.38;100.00;101740.03;6259190;28;20055;-94
2023/05/19 06:38:55;;;;;;;7.20;4.53;;;;;;;9.48;100.00;101741.19;6260101;28;20040;-94
2023/05/19 06:41:57;;;;;;;9.25;4.13;;;;;;;9.59;100.00;101740.63;6259918;28;20510;-94
2023/05/19 06:45:20;;;;;;;;;;;;;;;9.70;100.00;101738.25;6251304;28;20045;-95
2023/05/19 06:48:24;;;;;;;8.70;4.05;;;;;;;9.81;100.00;101744.59;6259691;28;19924;-94
2023/05/19 06:51:26;;;;;;;26.73;5.78;;;;;;;9.91;100.00;101735.38;6260383;28;20124;-94
2023/05/19 06:54:30;;;;;;;8.70;4.07;;;;;;;10.02;100.00;101743.38;6250051;28;20543;-94
2023/05/19 06:57:32;;;;;;;10.45;4.75;;;;;;;10.12;100.00;101744.50;6237167;28;20064;-94
2023/05/19 07:00:36;;;;;;;9.23;4.70;;;;;;;10.26;100.00;101745.47;6243188;28;20559;-95
2023/05/19 07:03:40;;;;;;;10.13;3.67;;;;;;;10.37;100.00;101740.53;6239074;28;20215;-94
2023/05/19 07:06:45;;;;;;;8.02;4.10;;;;;;;10.45;100.00;101740.91;6256537;28;20431;-93
2023/05/19 07:09:48;;;;;;;5.43;3.50;;;;;;;10.51;100.00;101745.75;6234594;28;20046;-95
2023/05/19 07:12:52;;;;;;;12.23;4.40;;;;;;;10.59;100.00;101734.94;6262729;28;20048;-95
2023/05/19 07:15:57;;;;;;;12.20;4.55;;;;;;;10.70;100.00;101736.88;6244151;28;20052;-96
2023/05/19 07:19:02;;;;;;;12.85;3.67;;;;;;;10.77;100.00;101744.19;6256768;28;20459;-96
2023/05/19 07:22:04;;;;;;;9.65;4.45;;;;;;;10.84;100.00;101739.47;6259097;28;20044;-96
2023/05/19 07:25:11;;;;;;;7.25;3.75;;;;;;;10.89;100.00;101740.03;6259003;28;20147;-96
2023/05/19 07:28:21;;;;;;;6.28;3.92;;;;;;;10.93;100.00;101728.56;6266128;28;20072;-96
2023/05/19 07:31:24;;;;;;;16.58;4.68;;;;;;;11.03;100.00;101736.59;6264897;28;20535;-96
2023/05/19 07:34:28;;;;;;;8.45;3.75;;;;;;;11.13;100.00;101721.28;6260115;28;20033;-96
2023/05/19 07:37:30;;;;;;;9.20;3.95;;;;;;;11.20;100.00;101725.16;6266983;28;20079;-96
2023/05/19 07:40:32;;;;;;;6.60;3.35;;;;;;;11.34;100.00;101722.53;6249867;28;20037;-96
2023/05/19 07:43:34;;;;;;;5.78;3.22;;;;;;;11.41;100.00;101721.22;6266828;28;20048;-96
2023/05/19 07:46:40;;;;;;;8.50;3.55;;;;;;;11.53;100.00;101729.19;6245387;28;20510;-96
2023/05/19 07:49:46;;;;;;;9.98;3.63;;;;;;;11.67;100.00;101723.91;6262816;28;20048;-96
2023/05/19 07:52:54;;;;;;;6.75;3.30;;;;;;;11.79;100.00;101723.13;6249294;28;20497;-96
2023/05/19 07:55:58;;;;;;;7.53;3.55;;;;;;;11.85;100.00;101711.53;6263162;28;20258;-96
2023/05/19 07:59:01;;;;;;;7.28;2.97;;;;;;;11.95;100.00;101716.97;6266055;28;20098;-96
2023/05/19 08:02:03;;;;;;;5.30;2.90;;;;;;;12.01;100.00;101708.78;6263027;28;20053;-96
2023/05/19 08:05:08;;;;;;;6.40;3.17;;;;;;;12.10;100.00;101717.72;6258124;28;21005;-96
2023/05/19 08:08:15;;;;;;;6.28;3.30;;;;;;;12.18;100.00;101713.69;6242091;28;20060;-96
2023/05/19 08:11:17;;;;;;;8.82;2.83;;;;;;;12.24;100.00;101715.03;6261335;28;20402;-96
2023/05/19 08:14:21;;;;;;;7.70;3.28;;;;;;;12.27;100.00;101712.22;6246847;28;20057;-96
2023/05/19 08:17:29;;;;;;;8.48;3.08;;;;;;;12.34;100.00;101720.44;6245268;28;20151;-96
2023/05/19 08:20:33;;;;;;;4.93;2.65;;;;;;;12.43;100.00;101710.28;6261907;28;20171;-96
2023/05/19 08:23:48;;;;;;;9.60;3.20;;;;;;;12.61;100.00;101717.75;6251209;28;20118;-96
2023/05/19 08:26:50;;;;;;;25.55;7.90;;;;;;;12.81;100.00;101718.97;6253961;28;20139;-96
2023/05/19 08:29:54;;;;;;;9.60;4.53;;;;;;;12.88;100.00;101713.25;6264083;28;20037;-96
2023/05/19 08:32:56;;;;;;;9.05;3.78;;;;;;;12.87;100.00;101695.19;6258321;28;20078;-96
2023/05/19 08:36:04;;;;;;;8.05;3.28;;;;;;;12.89;100.00;101708.88;6255387;28;20728;-96
2023/05/19 08:39:09;;;;;;;5.82;3.05;;;;;;;12.95;100.00;101705.03;6265895;28;20098;-96
2023/05/19 08:42:12;;;;;;;6.30;3.08;;;;;;;12.97;100.00;101700.53;6264650;28;20052;-96
2023/05/19 08:45:18;;;;;;;6.97;2.45;;;;;;;13.01;100.00;101702.00;6264945;28;20411;-96
2023/05/19 08:48:21;;;;;;;7.57;2.40;;;;;;;13.13;100.00;101690.72;6265124;28;20388;-96
2023/05/19 08:51:31;;;;;;;6.00;2.55;;;;;;;13.21;100.00;101698.81;6255025;28;20068;-96
2023/05/19 08:54:43;;;;;;;6.25;2.33;;;;;;;13.34;100.00;101699.63;6253104;28;20116;-95
2023/05/19 08:57:49;;;;;;;6.20;2.00;;;;;;;13.42;100.00;101686.06;6262728;28;20048;-96
2023/05/19 09:00:52;;;;;;;4.13;2.17;;;;;;;13.54;100.00;101684.38;6257521;28;20191;-96
2023/05/19 09:04:08;;;;;;;5.38;2.17;;;;;;;13.72;100.00;101679.56;6261910;28;20075;-96
2023/05/19 09:07:17;;;;;;;4.43;2.33;;;;;;;13.84;100.00;101670.00;6248013;28;20838;-96
2023/05/19 09:10:28;;;;;;;3.47;1.90;;;;;;;13.92;100.00;101673.72;6267981;28;20037;-96
2023/05/19 09:13:36;;;;;;;5.55;2.10;;;;;;;14.08;100.00;101675.97;6275299;28;20049;-96
2023/05/19 09:16:54;;;;;;;4.50;2.20;;;;;;;14.34;100.00;101676.63;6249863;28;20442;-96
2023/05/19 09:20:24;;;;;;;4.68;2.03;;;;;;;14.55;100.00;101676.78;6251829;28;20499;-96
2023/05/19 09:23:32;;;;;;;4.45;1.90;;;;;;;14.66;100.00;101668.13;6259039;28;20049;-96
2023/05/19 09:26:39;;;;;;;6.65;2.35;;;;;;;14.78;100.00;101664.56;6256680;28;20037;-96
2023/05/19 09:29:42;;;;;;;3.92;2.05;;;;;;;14.90;100.00;101664.53;6254665;28;20044;-96
2023/05/19 09:32:53;;;;;;;6.40;2.22;;;;;;;14.98;100.00;101659.53;6262781;28;20087;-96
2023/05/19 09:36:02;;;;;;;4.20;2.08;;;;;;;15.12;100.00;101663.66;6256275;28;20195;-97
2023/05/19 09:39:17;;;;;;;3.15;2.10;;;;;;;15.21;100.00;101657.72;6257380;28;20114;-96
2023/05/19 09:42:29;;;;;;;5.13;2.25;;;;;;;15.37;100.00;101652.91;6251496;28;20045;-96
2023/05/19 09:46:10;;;;;;;4.72;2.22;;;;;;;15.59;100.00;101659.00;6260947;28;20147;-96
2023/05/19 09:49:30;;;;;;;5.80;2.38;;;;;;;15.67;100.00;101654.78;6260079;28;20041;-96
2023/05/19 09:52:37;;;;;;;4.93;1.90;;;;;;;15.70;100.00;101641.53;6262610;28;20052;-96
2023/05/19 09:55:41;;;;;;;7.10;1.95;;;;;;;15.91;100.00;101646.72;6249501;28;20045;-96
2023/05/19 09:58:44;;;;;;;5.32;2.30;;;;;;;16.19;100.00;101630.53;6245397;28;20273;-96
2023/05/19 10:01:53;;;;;;;4.53;1.95;;;;;;;16.56;100.00;101644.69;6260661;28;20372;-96
2023/05/19 10:04:56;;;;;;;6.15;2.20;;;;;;;16.91;100.00;101634.75;6255452;28;20045;-96
2023/05/19 10:07:59;;;;;;;3.90;2.22;;;;;;;17.01;100.00;101639.03;6252404;28;20509;-96
2023/05/19 10:11:02;;;;;;;5.57;2.53;;;;;;;16.97;100.00;101645.53;6254817;28;20064;-96
2023/05/19 10:14:07;;;;;;;7.03;2.22;;;;;;;17.29;100.00;101635.75;6265700;28;20110;-96
2023/05/19 10:17:11;;;;;;;4.60;2.05;;;;;;;17.34;100.00;101637.00;6260460;28;20057;-91
2023/05/19 10:20:15;;;;;;;4.88;2.70;;;;;;;17.37;100.00;101631.50;6263015;28;20439;-96
2023/05/19 10:23:18;;;;;;;5.70;2.15;;;;;;;17.38;100.00;101625.28;6253022;28;20469;-96
2023/05/19 10:26:22;;;;;;;4.03;1.90;;;;;;;17.42;100.00;101628.47;6262567;28;20116;-96
2023/05/19 10:29:42;;;;;;;3.53;1.73;;;;;;;17.92;100.00;101632.69;6261778;28;20640;-96
2023/05/19 10:32:47;;;;;;;5.40;1.90;;;;;;;18.33;100.00;101625.34;6261750;28;20064;-96
2023/05/19 10:36:14;;;;;;;4.03;1.90;;;;;;;18.66;96.05;101630.03;6243925;28;20052;-95
2023/05/19 10:39:36;;;;;;;1.83;1.55;;;;;;;19.20;84.88;101616.97;6261809;28;20041;-95
2023/05/19 10:43:11;;;;;;;3.70;1.83;;;;;;;19.46;89.49;101611.78;6260167;28;20051;-95
2023/05/19 10:46:14;;;;;;;6.18;2.00;;;;;;;19.48;84.55;101616.88;6250788;28;20056;-96
2023/05/19 10:49:21;;;;;;;4.57;1.80;;;;;;;19.22;90.42;101615.00;6264005;28;20044;-96
2023/05/19 10:52:28;;;;;;;3.65;2.00;;;;;;;18.89;85.92;101606.03;6260949;28;20049;-96
2023/05/19 10:56:03;;;;;;;6.25;1.85;;;;;;;18.60;90.34;101593.06;6260925;28;20127;-96
2023/05/19 10:59:05;;;;;;;2.90;1.75;;;;;;;18.44;94.46;101594.53;6260373;28;20056;-96
2023/05/19 11:02:08;;;;;;;3.72;1.73;;;;;;;18.28;100.00;101595.19;6260856;28;20494;-96
2023/05/19 11:05:17;;;;;;;5.30;1.85;;;;;;;18.23;95.89;101593.94;6252013;28;20037;-96
2023/05/19 11:08:32;;;;;;;5.43;1.80;;;;;;;18.59;100.00;101596.66;6255803;28;20078;-95
2023/05/19 11:11:52;;;;;;;7.18;2.95;;;;;;;18.93;92.87;101591.63;6256864;28;20033;-95
2023/05/19 11:14:58;;;;;;;4.22;1.77;;;;;;;19.14;97.01;101592.13;6243813;28;20048;-96
2023/05/19 11:18:04;;;;;;;3.60;1.60;;;;;;;19.20;91.87;101600.38;6245788;28;20155;-96
2023/05/19 11:21:14;;;;;;;3.70;1.50;;;;;;;19.41;85.22;101600.91;6259019;28;20108;-96
2023/05/19 11:24:59;;;;;;;4.07;1.65;;;;;;;19.18;83.94;101597.09;6251550;28;20072;-96
2023/05/19 11:28:18;;;;;;;3.47;1.70;;;;;;;18.82;85.48;101590.03;6254367;28;20063;-96
2023/05/19 11:31:26;;;;;;;3.08;1.70;;;;;;;18.58;88.58;101587.13;6239279;28;20049;-96
2023/05/19 11:34:34;;;;;;;2.97;1.55;;;;;;;18.51;92.02;101586.91;6241317;28;20541;-96
2023/05/19 11:37:56;;;;;;;;;;;;;;;18.63;88.11;101588.38;6263492;28;20124;-95
2023/05/19 11:41:07;;;;;;;2.95;1.38;;;;;;;18.63;84.43;101577.03;6240216;28;19933;-95
2023/05/19 11:44:24;;;;;;;2.85;1.58;;;;;;;18.65;89.42;101580.34;6261466;28;20524;-96
2023/05/19 11:48:42;;;;;;;2.50;1.23;;;;;;;18.80;84.53;101575.44;6187443;28;20038;-96
2023/05/19 11:52:29;;;;;;;1.88;1.30;;;;;;;19.06;84.26;101575.50;6155238;28;20082;-96
2023/05/19 11:55:34;;;;;;;3.53;1.33;;;;;;;19.32;74.69;101562.41;6128369;28;20046;-96
2023/05/19 11:58:42;;;;;;;1.48;1.20;;;;;;;19.59;78.48;101571.97;6163576;28;20803;-96
2023/05/19 12:01:45;;;;;;;2.95;1.20;;;;;;;19.70;69.33;101573.53;6163451;28;20043;-96
2023/05/19 12:05:01;;;;;;;3.20;1.23;;;;;;;19.95;71.38;101567.44;6148467;28;20054;-96
2023/05/19 12:08:17;;;;;;;6.90;1.50;;;;;;;19.76;69.62;101563.22;6161937;28;20062;-96
2023/05/19 12:11:22;;;;;;;3.85;1.40;;;;;;;19.80;77.30;101561.13;6167648;28;20099;-96
2023/05/19 12:14:29;;;;;;;1.73;1.25;;;;;;;20.21;70.45;101556.84;6161462;28;20043;-96
2023/05/19 12:17:33;;;;;;;2.55;1.40;;;;;;;20.75;70.65;101558.34;6138381;28;20078;-96
2023/05/19 12:20:36;;;;;;;3.80;1.38;;;;;;;21.27;62.23;101550.94;6152783;28;20413;-96
2023/05/19 12:23:42;;;;;;;1.95;1.45;;;;;;;21.84;63.56;101550.00;6140601;28;20057;-96
2023/05/19 12:26:53;;;;;;;2.08;1.33;;;;;;;21.85;59.52;101545.56;6162421;28;20043;-95
2023/05/19 12:29:56;;;;;;;20.60;3.83;;;;;;;21.36;58.88;101551.72;6163389;28;20406;-95
2023/05/19 12:33:02;;;;;;;21.23;7.07;;;;;;;20.88;66.19;101550.78;6140430;28;20042;-96
2023/05/19 12:36:07;;;;;;;7.13;2.23;;;;;;;21.01;63.29;101558.19;6153782;28;20051;-94
2023/05/19 12:39:10;;;;;;;2.47;1.30;;;;;;;21.64;59.21;101544.31;6167651;28;20497;-94
2023/05/19 12:42:15;;;;;;;3.33;1.33;;;;;;;21.71;51.93;101545.28;6147870;28;20806;-93
2023/05/19 12:45:21;;;;;;;2.08;1.02;;;;;;;21.22;54.11;101547.97;6162156;28;20038;-95
2023/05/19 12:48:24;;;;;;;3.17;1.40;;;;;;;21.55;56.56;101534.78;6152942;28;20777;-95
2023/05/19 12:51:25;;;;;;;4.20;1.40;;;;;;;22.34;55.02;101532.19;6160852;28;20047;-94
2023/05/19 12:54:32;;;;;;;3.22;1.30;;;;;;;23.13;48.17;101539.84;6165699;28;20174;-94
2023/05/19 12:57:35;;;;;;;1.67;1.00;;;;;;;23.95;47.50;101531.06;6166395;28;20093;-95
2023/05/19 13:00:46;;;;;;;2.08;1.13;;;;;;;24.22;48.40;101538.34;6151241;28;20047;-96
2023/05/19 13:03:51;;;;;;;1.98;1.17;;;;;;;24.06;51.59;101533.25;6165920;28;20059;-94
2023/05/19 13:06:54;;;;;;;2.85;1.40;;;;;;;24.45;48.25;101524.97;6167562;28;20136;-94
2023/05/19 13:09:56;;;;;;;2.90;1.23;;;;;;;24.73;49.35;101526.03;6154536;28;20047;-94
2023/05/19 13:12:59;;;;;;;2.08;1.20;;;;;;;24.84;46.06;101525.50;6166373;28;20050;-95
2023/05/19 13:16:01;;;;;;;2.30;1.38;;;;;;;24.70;47.92;101520.09;6165115;28;20039;-94
2023/05/19 13:19:04;;;;;;;1.67;1.30;;;;;;;24.34;48.09;101516.66;6157493;28;20505;-94
2023/05/19 13:22:09;;;;;;;2.17;1.20;;;;;;;23.53;48.84;101522.78;6161856;28;20190;-96
2023/05/19 13:25:18;;;;;;;2.22;1.30;;;;;;;22.76;47.86;101521.16;6161294;28;20035;-96
2023/05/19 13:28:25;;;;;;;2.25;1.10;;;;;;;22.82;52.53;101519.63;6156948;28;20059;-96
2023/05/19 13:31:27;;;;;;;1.23;0.90;;;;;;;23.62;51.18;101523.50;6161439;28;20389;-96
2023/05/19 13:34:29;;;;;;;2.75;1.30;;;;;;;24.11;46.91;101514.19;6153533;28;20043;-96
2023/05/19 13:37:32;;;;;;;2.67;1.42;;;;;;;23.93;46.87;101520.69;6153293;28;20134;-95
2023/05/19 13:40:35;;;;;;;1.58;1.00;;;;;;;23.19;47.27;101518.03;6136177;28;20104;-96
2023/05/19 13:43:37;;;;;;;1.63;1.05;;;;;;;22.73;48.45;101515.41;6165432;28;20101;-94
2023/05/19 13:46:39;;;;;;;1.88;1.40;;;;;;;23.54;50.05;101513.84;6138929;28;20062;-95
2023/05/19 13:50:03;;;;;;;2.75;1.10;;;;;;;24.62;47.51;101514.94;6157360;28;20054;-95
2023/05/19 13:53:05;;;;;;;3.30;1.13;;;;;;;25.26;45.18;101506.06;6165625;28;20077;-95
2023/05/19 13:56:07;;;;;;;2.28;1.40;;;;;;;25.56;45.16;101513.78;6165339;28;20066;-96
2023/05/19 13:59:09;;;;;;;1.98;1.20;;;;;;;25.04;41.65;101510.59;6162997;28;20055;-96
2023/05/19 14:02:15;;;;;;;4.18;1.25;;;;;;;24.32;44.87;101513.38;6162283;28;20054;-96
2023/05/19 14:05:21;;;;;;;2.55;1.35;;;;;;;23.70;43.99;101504.94;6132755;28;20535;-96
2023/05/19 14:08:27;;;;;;;2.53;1.15;;;;;;;23.09;46.58;101501.63;6136445;28;20042;-96
2023/05/19 14:11:32;;;;;;;3.30;1.20;;;;;;;22.50;50.42;101500.41;6132728;28;20054;-96
2023/05/19 14:14:35;;;;;;;1.58;0.90;;;;;;;22.50;50.82;101500.41;6143592;28;20051;-95
2023/05/19 14:17:37;;;;;;;1.70;1.10;;;;;;;23.19;48.67;101488.97;6162409;28;20456;-96
2023/05/19 14:20:39;;;;;;;3.33;1.20;;;;;;;24.12;45.49;101471.66;6159868;28;20075;-96
2023/05/19 14:23:42;;;;;;;3.25;1.20;;;;;;;24.70;44.27;101477.75;6165025;28;20830;-96
2023/05/19 14:26:46;;;;;;;1.63;1.35;;;;;;;24.28;44.98;101479.34;6163217;28;20053;-96